createdAt,value
2022-11-09T00:01:05.866Z,21.80
2022-11-09T00:03:33.336Z,22.70
2022-11-09T00:06:01.192Z,23.83
2022-11-09T00:08:29.681Z,29.50
2022-11-09T00:11:07.696Z,28.13
2022-11-09T00:13:43.034Z,25.60
2022-11-09T00:16:14.345Z,22.20
2022-11-09T00:18:47.522Z,21.53
2022-11-09T00:21:24.418Z,20.50
2022-11-09T00:23:52.677Z,19.43
2022-11-09T00:26:21.141Z,21.03
2022-11-09T00:28:49.881Z,20.80
2022-11-09T00:31:21.387Z,22.33
2022-11-09T00:33:56.930Z,20.47
2022-11-09T00:36:27.688Z,23.43
2022-11-09T00:38:58.578Z,23.23
2022-11-09T00:41:27.315Z,20.90
2022-11-09T00:43:55.100Z,21.73
2022-11-09T00:46:23.279Z,21.13
2022-11-09T00:48:51.020Z,20.17
2022-11-09T00:51:19.230Z,21.43
2022-11-09T00:53:48.597Z,21.90
2022-11-09T00:56:16.356Z,21.07
2022-11-09T00:58:43.814Z,21.13
2022-11-09T01:01:15.370Z,19.90
2022-11-09T01:03:44.940Z,18.47
2022-11-09T01:06:23.384Z,19.03
2022-11-09T01:08:51.796Z,20.03
2022-11-09T01:11:21.522Z,19.83
2022-11-09T01:13:49.419Z,21.63
2022-11-09T01:16:21.516Z,22.20
2022-11-09T01:18:53.401Z,23.40
2022-11-09T01:21:20.872Z,20.97
2022-11-09T01:23:48.295Z,22.73
2022-11-09T01:26:16.581Z,18.73
2022-11-09T01:28:44.774Z,19.03
2022-11-09T01:31:16.799Z,18.70
2022-11-09T01:33:45.043Z,18.13
2022-11-09T01:36:17.053Z,19.87
2022-11-09T01:38:44.541Z,19.60
2022-11-09T01:41:19.956Z,19.87
2022-11-09T01:44:14.854Z,19.77
2022-11-09T01:47:04.015Z,18.83
2022-11-09T01:49:44.291Z,18.87
2022-11-09T01:52:18.360Z,17.87
2022-11-09T01:54:58.100Z,17.90
2022-11-09T01:57:40.277Z,19.37
2022-11-09T02:00:13.332Z,19.20
2022-11-09T02:02:47.516Z,20.03
2022-11-09T02:05:21.429Z,20.17
2022-11-09T02:07:50.282Z,19.17
2022-11-09T02:10:39.475Z,19.33
2022-11-09T02:13:08.835Z,18.90
2022-11-09T02:15:40.258Z,18.50
2022-11-09T02:18:12.248Z,17.73
2022-11-09T02:20:49.432Z,18.50
2022-11-09T02:23:17.942Z,19.97
2022-11-09T02:25:51.842Z,18.60
2022-11-09T02:28:19.895Z,18.37
2022-11-09T02:30:52.143Z,19.83
2022-11-09T02:33:19.961Z,17.93
2022-11-09T02:35:47.669Z,18.70
2022-11-09T02:38:15.953Z,21.07
2022-11-09T02:40:51.926Z,19.10
2022-11-09T02:43:20.817Z,19.70
2022-11-09T02:45:48.561Z,19.17
2022-11-09T02:48:15.991Z,19.17
2022-11-09T02:50:43.416Z,18.80
2022-11-09T02:53:10.872Z,17.93
2022-11-09T02:55:38.253Z,19.83
2022-11-09T02:58:05.744Z,21.90
2022-11-09T03:00:33.187Z,20.33
2022-11-09T03:03:00.725Z,19.40
2022-11-09T03:05:28.166Z,19.47
2022-11-09T03:07:56.802Z,18.60
2022-11-09T03:10:24.250Z,19.43
2022-11-09T03:12:51.684Z,19.30
2022-11-09T03:15:19.247Z,19.67
2022-11-09T03:17:46.690Z,21.73
2022-11-09T03:20:14.253Z,21.47
2022-11-09T03:22:41.701Z,20.90
2022-11-09T03:25:09.725Z,20.10
2022-11-09T03:27:37.150Z,18.73
2022-11-09T03:30:05.178Z,19.27
2022-11-09T03:32:32.692Z,19.67
2022-11-09T03:35:00.091Z,18.83
2022-11-09T03:37:27.545Z,19.57
2022-11-09T03:39:54.995Z,17.00
2022-11-09T03:42:22.377Z,19.67
2022-11-09T03:44:49.842Z,20.57
2022-11-09T03:47:17.318Z,20.17
2022-11-09T03:49:44.706Z,18.80
2022-11-09T03:52:12.140Z,18.80
2022-11-09T03:54:39.555Z,17.53
2022-11-09T03:57:06.979Z,18.63
2022-11-09T03:59:34.425Z,17.50
2022-11-09T04:02:01.860Z,18.57
2022-11-09T04:04:29.337Z,20.13
2022-11-09T04:06:56.859Z,21.80
2022-11-09T04:09:24.328Z,20.67
2022-11-09T04:11:51.715Z,20.90
2022-11-09T04:14:19.132Z,21.00
2022-11-09T04:16:46.510Z,21.97
2022-11-09T04:19:14.041Z,22.20
2022-11-09T04:21:41.443Z,21.00
2022-11-09T04:24:08.947Z,23.40
2022-11-09T04:26:36.444Z,22.30
2022-11-09T04:29:04.421Z,22.47
2022-11-09T04:31:31.825Z,23.37
2022-11-09T04:33:59.315Z,22.30
2022-11-09T04:36:26.736Z,21.63
2022-11-09T04:38:54.129Z,20.60
2022-11-09T04:41:21.638Z,19.10
2022-11-09T04:43:49.048Z,19.90
2022-11-09T04:46:16.502Z,18.93
2022-11-09T04:48:44.571Z,19.00
2022-11-09T04:51:12.097Z,20.90
2022-11-09T04:53:40.377Z,21.63
2022-11-09T04:56:08.843Z,22.27
2022-11-09T04:58:36.525Z,21.67
2022-11-09T05:01:12.594Z,21.10
2022-11-09T05:03:40.646Z,22.27
2022-11-09T05:06:26.969Z,22.63
2022-11-09T05:08:55.708Z,23.03
2022-11-09T05:11:23.908Z,23.23
2022-11-09T05:13:51.831Z,23.13
2022-11-09T05:16:20.351Z,21.93
2022-11-09T05:18:48.048Z,21.53
2022-11-09T05:21:15.808Z,20.90
2022-11-09T05:24:01.636Z,20.20
2022-11-09T05:26:41.820Z,20.87
2022-11-09T05:29:11.967Z,21.53
2022-11-09T05:31:40.475Z,22.87
2022-11-09T05:34:08.383Z,22.67
2022-11-09T05:36:35.810Z,24.33
2022-11-09T05:39:03.288Z,26.27
2022-11-09T05:41:30.874Z,27.50
2022-11-09T05:43:58.275Z,26.37
2022-11-09T05:46:26.443Z,24.37
2022-11-09T05:48:53.873Z,24.33
2022-11-09T05:51:21.433Z,22.50
2022-11-09T05:53:48.877Z,22.93
2022-11-09T05:56:16.620Z,22.23
2022-11-09T05:58:44.719Z,22.63
2022-11-09T06:01:16.152Z,22.63
2022-11-09T06:03:44.513Z,21.90
2022-11-09T06:06:14.730Z,21.73
2022-11-09T06:08:42.711Z,22.10
2022-11-09T06:11:15.705Z,21.07
2022-11-09T06:13:49.468Z,21.30
2022-11-09T06:16:17.010Z,25.10
2022-11-09T06:18:44.458Z,23.50
2022-11-09T06:21:12.259Z,23.23
2022-11-09T06:23:39.664Z,22.57
2022-11-09T06:26:11.233Z,20.80
2022-11-09T06:28:40.811Z,22.50
2022-11-09T06:31:14.349Z,22.80
2022-11-09T06:33:42.406Z,23.13
2022-11-09T06:36:11.540Z,23.13
2022-11-09T06:38:39.636Z,24.33
2022-11-09T06:41:07.439Z,23.53
2022-11-09T06:43:34.895Z,22.33
2022-11-09T06:46:06.300Z,21.57
2022-11-09T06:48:33.852Z,21.53
2022-11-09T06:51:02.537Z,21.03
2022-11-09T06:53:31.314Z,21.47
2022-11-09T06:56:04.617Z,23.77
2022-11-09T06:58:32.895Z,27.03
2022-11-09T07:01:00.484Z,25.27
2022-11-09T07:03:27.887Z,32.77
2022-11-09T07:05:55.386Z,29.80
2022-11-09T07:08:22.819Z,30.20
2022-11-09T07:10:50.201Z,27.03
2022-11-09T07:13:17.807Z,28.40
2022-11-09T07:15:45.387Z,30.53
2022-11-09T07:18:13.388Z,25.13
2022-11-09T07:20:41.000Z,24.00
2022-11-09T07:23:08.503Z,23.10
2022-11-09T07:25:36.522Z,22.47
2022-11-09T07:28:09.438Z,23.37
2022-11-09T07:30:37.473Z,24.53
2022-11-09T07:33:18.194Z,25.37
2022-11-09T07:35:46.950Z,37.03
2022-11-09T07:38:19.807Z,34.53
2022-11-09T07:40:47.420Z,29.93
2022-11-09T07:43:15.064Z,25.70
2022-11-09T07:45:42.567Z,24.67
2022-11-09T07:48:12.171Z,25.73
2022-11-09T07:50:40.972Z,24.63
2022-11-09T07:53:12.031Z,23.83
2022-11-09T07:55:39.806Z,23.23
2022-11-09T07:58:14.603Z,22.93
2022-11-09T08:00:44.065Z,22.30
2022-11-09T08:03:11.817Z,19.33
2022-11-09T08:05:40.172Z,21.40
2022-11-09T08:08:11.452Z,21.33
2022-11-09T08:10:40.064Z,20.63
2022-11-09T08:13:13.899Z,19.60
2022-11-09T08:15:42.210Z,20.53
2022-11-09T08:18:19.302Z,19.67
2022-11-09T08:20:47.620Z,20.33
2022-11-09T08:23:18.266Z,20.00
2022-11-09T08:25:45.772Z,19.33
2022-11-09T08:28:16.360Z,18.60
2022-11-09T08:30:45.728Z,18.97
2022-11-09T08:33:14.337Z,18.97
2022-11-09T08:35:42.735Z,19.97
2022-11-09T08:38:10.414Z,18.37
2022-11-09T08:40:37.955Z,18.70
2022-11-09T08:43:08.318Z,19.60
2022-11-09T08:45:38.917Z,19.43
2022-11-09T08:48:07.953Z,18.13
2022-11-09T08:50:37.005Z,18.03
2022-11-09T08:53:05.776Z,17.20
2022-11-09T08:55:33.369Z,17.00
2022-11-09T08:58:03.703Z,16.20
2022-11-09T09:00:31.751Z,16.87
2022-11-09T09:02:59.344Z,17.77
2022-11-09T09:05:26.853Z,17.87
2022-11-09T09:07:54.293Z,16.20
2022-11-09T09:10:21.744Z,16.90
2022-11-09T09:12:49.147Z,16.53
2022-11-09T09:15:16.736Z,17.43
2022-11-09T09:17:44.310Z,16.60
2022-11-09T09:20:12.202Z,16.97
2022-11-09T09:22:40.394Z,15.90
2022-11-09T09:25:08.785Z,16.40
2022-11-09T09:27:36.587Z,16.70
2022-11-09T09:30:05.112Z,17.20
2022-11-09T09:32:32.601Z,16.53
2022-11-09T09:35:00.050Z,16.27
2022-11-09T09:37:27.559Z,16.00
2022-11-09T09:39:55.056Z,16.77
2022-11-09T09:42:32.182Z,17.20
2022-11-09T09:45:18.592Z,16.87
2022-11-09T09:48:28.620Z,16.77
2022-11-09T09:51:04.964Z,16.30
2022-11-09T09:53:45.564Z,16.53
2022-11-09T09:56:29.162Z,16.00
2022-11-09T09:59:40.524Z,16.37
2022-11-09T10:02:30.814Z,17.20
2022-11-09T10:05:03.064Z,16.73
2022-11-09T10:07:56.309Z,17.17
2022-11-09T10:10:46.556Z,15.83
2022-11-09T10:13:49.074Z,16.90
2022-11-09T10:16:59.992Z,15.53
2022-11-09T10:19:55.506Z,15.93
2022-11-09T10:22:52.539Z,15.53
2022-11-09T10:25:50.312Z,17.43
2022-11-09T10:28:17.897Z,14.97
2022-11-09T10:30:46.416Z,15.33
2022-11-09T10:33:20.969Z,14.87
2022-11-09T10:35:59.317Z,14.47
2022-11-09T10:38:38.968Z,11.20
2022-11-09T10:41:28.846Z,12.93
2022-11-09T10:43:56.295Z,11.60
2022-11-09T10:46:24.752Z,9.87
2022-11-09T10:48:54.418Z,11.10
2022-11-09T10:51:43.255Z,10.03
2022-11-09T10:54:28.196Z,10.97
2022-11-09T10:57:17.650Z,10.07
2022-11-09T10:59:51.441Z,10.83
2022-11-09T11:02:25.389Z,10.93
2022-11-09T11:05:18.740Z,11.83
2022-11-09T11:07:47.035Z,11.30
2022-11-09T11:10:17.278Z,10.90
2022-11-09T11:12:53.644Z,10.27
2022-11-09T11:15:41.107Z,10.87
2022-11-09T11:18:27.668Z,10.57
2022-11-09T11:21:18.660Z,11.50
2022-11-09T11:24:11.350Z,10.87
2022-11-09T11:26:59.809Z,10.83
2022-11-09T11:29:36.216Z,10.53
2022-11-09T11:32:03.991Z,11.07
2022-11-09T11:34:58.388Z,13.63
2022-11-09T11:38:14.475Z,13.43
2022-11-09T11:41:01.184Z,11.80
2022-11-09T11:43:58.967Z,11.93
2022-11-09T11:46:47.606Z,10.30
2022-11-09T11:49:26.744Z,10.77
2022-11-09T11:52:23.518Z,10.40
2022-11-09T11:55:18.733Z,10.93
2022-11-09T11:58:16.094Z,9.33
2022-11-09T12:01:13.245Z,10.13
2022-11-09T12:03:56.651Z,9.37
2022-11-09T12:06:45.334Z,10.87
2022-11-09T12:09:12.754Z,9.87
2022-11-09T12:12:15.506Z,10.07
2022-11-09T12:15:15.962Z,10.93
2022-11-09T12:18:07.509Z,11.47
2022-11-09T12:20:42.890Z,10.40
2022-11-09T12:23:33.834Z,10.37
2022-11-09T12:26:28.339Z,10.60
2022-11-09T12:29:16.682Z,7.87
2022-11-09T12:32:17.456Z,8.53
2022-11-09T12:35:15.845Z,8.27
2022-11-09T12:38:20.599Z,9.40
2022-11-09T12:41:13.980Z,7.80
2022-11-09T12:44:14.486Z,8.30
2022-11-09T12:46:51.636Z,9.80
2022-11-09T12:49:40.461Z,9.00
2022-11-09T12:52:13.548Z,8.40
2022-11-09T12:54:46.195Z,8.40
2022-11-09T12:57:27.897Z,8.23
2022-11-09T12:59:58.656Z,10.27
2022-11-09T13:02:32.059Z,9.57
2022-11-09T13:05:06.227Z,9.30
2022-11-09T13:07:47.144Z,9.23
2022-11-09T13:10:38.174Z,9.90
2022-11-09T13:13:26.032Z,9.73
2022-11-09T13:16:20.624Z,9.03
2022-11-09T13:18:52.075Z,9.07
2022-11-09T13:21:22.586Z,10.07
2022-11-09T13:24:01.610Z,9.83
2022-11-09T13:26:33.059Z,9.33
2022-11-09T13:29:15.562Z,9.80
2022-11-09T13:32:01.798Z,8.53
2022-11-09T13:34:47.953Z,9.00
2022-11-09T13:37:43.373Z,9.23
2022-11-09T13:40:32.468Z,8.67
2022-11-09T13:43:08.663Z,8.20
2022-11-09T13:45:57.821Z,8.90
2022-11-09T13:48:30.592Z,7.90
2022-11-09T13:51:17.015Z,8.63
2022-11-09T13:54:02.798Z,9.33
2022-11-09T13:56:41.385Z,9.67
2022-11-09T13:59:24.031Z,8.93
2022-11-09T14:01:54.400Z,9.80
2022-11-09T14:04:36.625Z,8.60
2022-11-09T14:07:27.758Z,8.70
2022-11-09T14:10:13.441Z,11.03
2022-11-09T14:12:59.270Z,9.07
2022-11-09T14:15:51.977Z,8.83
2022-11-09T14:18:31.642Z,11.30
2022-11-09T14:21:12.739Z,11.53
2022-11-09T14:23:40.549Z,11.80
2022-11-09T14:26:23.023Z,12.90
2022-11-09T14:28:50.619Z,13.03
2022-11-09T14:31:29.616Z,13.07
2022-11-09T14:34:07.940Z,13.83
2022-11-09T14:36:35.840Z,12.47
2022-11-09T14:39:22.273Z,13.00
2022-11-09T14:41:50.836Z,13.27
2022-11-09T14:44:29.824Z,13.50
2022-11-09T14:46:57.930Z,13.47
2022-11-09T14:49:27.160Z,14.97
2022-11-09T14:51:54.944Z,13.80
2022-11-09T14:54:26.629Z,13.13
2022-11-09T14:56:55.786Z,12.83
2022-11-09T14:59:32.331Z,14.17
2022-11-09T15:02:21.731Z,13.80
2022-11-09T15:04:59.930Z,13.67
2022-11-09T15:07:31.853Z,14.40
2022-11-09T15:10:06.216Z,14.57
2022-11-09T15:12:35.537Z,14.87
2022-11-09T15:15:07.593Z,16.00
2022-11-09T15:17:44.418Z,15.43
2022-11-09T15:20:14.969Z,15.50
2022-11-09T15:22:57.548Z,14.73
2022-11-09T15:25:36.826Z,13.93
2022-11-09T15:28:13.031Z,13.83
2022-11-09T15:30:53.982Z,13.57
2022-11-09T15:33:26.749Z,15.63
2022-11-09T15:36:00.671Z,17.53
2022-11-09T15:39:02.582Z,18.07
2022-11-09T15:41:31.846Z,17.70
2022-11-09T15:43:59.507Z,16.97
2022-11-09T15:46:37.962Z,16.20
2022-11-09T15:49:27.389Z,14.87
2022-11-09T15:51:56.508Z,14.70
2022-11-09T15:54:24.672Z,16.13
2022-11-09T15:56:52.780Z,15.80
2022-11-09T15:59:27.454Z,15.10
2022-11-09T16:01:54.983Z,15.00
2022-11-09T16:04:22.540Z,14.47
2022-11-09T16:06:50.051Z,15.57
2022-11-09T16:09:17.840Z,15.30
2022-11-09T16:11:45.286Z,16.00
2022-11-09T16:14:12.757Z,15.83
2022-11-09T16:16:40.180Z,16.70
2022-11-09T16:19:07.593Z,18.13
2022-11-09T16:21:35.055Z,17.67
2022-11-09T16:24:02.488Z,18.90
2022-11-09T16:26:30.336Z,19.70
2022-11-09T16:28:58.257Z,19.60
2022-11-09T16:31:48.017Z,20.10
2022-11-09T16:34:13.106Z,21.03
2022-11-09T16:36:47.935Z,51.77
2022-11-09T16:39:17.375Z,32.43
2022-11-09T16:41:48.673Z,108.67
2022-11-09T16:44:21.053Z,64.83
2022-11-09T16:46:49.027Z,31.77
2022-11-09T16:49:16.524Z,26.57
2022-11-09T16:51:44.164Z,27.30
2022-11-09T16:54:11.610Z,28.73
2022-11-09T16:56:39.014Z,23.77
2022-11-09T16:59:06.517Z,74.20
2022-11-09T17:01:34.040Z,22.53
2022-11-09T17:04:01.552Z,121.33
2022-11-09T17:06:29.056Z,26.13
2022-11-09T17:08:57.253Z,20.67
2022-11-09T17:11:25.261Z,18.77
2022-11-09T17:14:00.119Z,17.60
2022-11-09T17:16:27.937Z,16.87
2022-11-09T17:18:57.117Z,16.83
2022-11-09T17:21:27.332Z,48.23
2022-11-09T17:23:56.586Z,94.60
2022-11-09T17:26:25.288Z,109.43
2022-11-09T17:28:53.074Z,41.83
2022-11-09T17:31:23.389Z,27.93
2022-11-09T17:33:50.800Z,31.67
2022-11-09T17:36:29.945Z,98.93
2022-11-09T17:39:07.283Z,113.83
2022-11-09T17:41:38.650Z,64.97
2022-11-09T17:44:08.936Z,81.80
2022-11-09T17:46:36.455Z,54.50
2022-11-09T17:49:09.605Z,58.70
2022-11-09T17:51:38.340Z,46.20
2022-11-09T17:54:06.463Z,38.43
2022-11-09T17:56:34.817Z,40.63
2022-11-09T17:59:05.631Z,38.37
2022-11-09T18:01:39.502Z,38.10
2022-11-09T18:04:10.738Z,33.90
2022-11-09T18:06:39.109Z,25.77
2022-11-09T18:11:54.488Z,20.53
2022-11-09T18:14:22.076Z,24.50
2022-11-09T18:16:49.466Z,23.03
2022-11-09T18:19:17.097Z,29.60
2022-11-09T18:21:46.257Z,43.40
2022-11-09T18:24:14.817Z,38.67
2022-11-09T18:26:42.374Z,44.00
2022-11-09T18:29:09.980Z,39.73
2022-11-09T18:31:37.500Z,42.27
2022-11-09T18:34:05.506Z,35.53
2022-11-09T18:36:33.033Z,31.40
2022-11-09T18:39:03.228Z,34.67
2022-11-09T18:41:30.904Z,36.67
2022-11-09T18:43:58.655Z,39.90
2022-11-09T18:46:30.341Z,41.50
2022-11-09T18:48:57.733Z,40.63
2022-11-09T18:51:25.293Z,40.23
2022-11-09T18:53:52.885Z,34.17
2022-11-09T18:56:24.680Z,28.90
2022-11-09T18:58:55.200Z,25.43
2022-11-09T19:01:24.889Z,24.57
2022-11-09T19:03:58.750Z,32.83
2022-11-09T19:06:27.684Z,39.70
2022-11-09T19:09:13.850Z,51.97
2022-11-09T19:11:41.440Z,51.00
2022-11-09T19:14:11.235Z,50.17
2022-11-09T19:16:38.944Z,46.20
2022-11-09T19:19:06.559Z,60.40
2022-11-09T19:21:53.364Z,63.20
2022-11-09T19:24:24.562Z,67.87
2022-11-09T19:26:52.229Z,76.30
2022-11-09T19:29:19.733Z,47.47
2022-11-09T19:31:48.761Z,46.23
2022-11-09T19:34:21.829Z,52.77
2022-11-09T19:36:49.802Z,57.67
2022-11-09T19:39:17.739Z,62.40
2022-11-09T19:41:45.257Z,51.53
2022-11-09T19:44:18.171Z,56.13
2022-11-09T19:46:46.138Z,55.43
2022-11-09T19:49:14.694Z,50.40
2022-11-09T19:51:43.373Z,48.13
2022-11-09T19:54:12.636Z,52.23
2022-11-09T19:56:40.229Z,40.80
2022-11-09T19:59:07.900Z,30.77
2022-11-09T20:01:35.644Z,31.97
2022-11-09T20:04:07.679Z,32.77
2022-11-09T20:06:39.507Z,38.17
2022-11-09T20:09:07.457Z,53.47
2022-11-09T20:11:53.570Z,39.73
2022-11-09T20:14:21.382Z,56.47
2022-11-09T20:16:49.356Z,63.57
2022-11-09T20:19:16.895Z,52.07
2022-11-09T20:21:45.020Z,39.30
2022-11-09T20:24:12.946Z,36.87
2022-11-09T20:26:41.009Z,28.67
2022-11-09T20:29:09.034Z,27.60
2022-11-09T20:31:37.580Z,30.20
2022-11-09T20:34:05.455Z,34.03
2022-11-09T20:36:33.120Z,35.97
2022-11-09T20:39:00.897Z,61.93
2022-11-09T20:41:28.998Z,75.53
2022-11-09T20:43:56.430Z,53.70
2022-11-09T20:46:24.679Z,57.63
2022-11-09T20:48:55.192Z,52.13
2022-11-09T20:51:24.418Z,53.97
2022-11-09T20:53:52.294Z,53.47
2022-11-09T20:56:21.004Z,51.77
2022-11-09T20:58:48.694Z,48.67
2022-11-09T21:01:25.013Z,34.77
2022-11-09T21:03:53.741Z,35.93
2022-11-09T21:06:21.906Z,34.07
2022-11-09T21:08:56.010Z,30.63
2022-11-09T21:11:28.788Z,39.73
2022-11-09T21:13:56.627Z,39.43
2022-11-09T21:16:24.527Z,39.00
2022-11-09T21:18:52.158Z,35.47
2022-11-09T21:21:23.002Z,39.70
2022-11-09T21:24:09.509Z,37.60
2022-11-09T21:26:55.304Z,41.03
2022-11-09T21:29:43.509Z,44.73
2022-11-09T21:32:12.312Z,44.37
2022-11-09T21:34:39.815Z,43.03
2022-11-09T21:37:07.340Z,37.63
2022-11-09T21:39:35.120Z,37.03
2022-11-09T21:42:03.905Z,39.17
2022-11-09T21:44:33.521Z,55.63
2022-11-09T21:47:01.982Z,46.03
2022-11-09T21:49:29.655Z,44.23
2022-11-09T21:51:57.742Z,46.57
2022-11-09T21:54:25.697Z,42.77
2022-11-09T21:56:53.544Z,43.47
2022-11-09T21:59:21.213Z,37.87
2022-11-09T22:01:50.262Z,39.10
2022-11-09T22:04:17.912Z,39.97
2022-11-09T22:06:45.744Z,45.80
2022-11-09T22:09:18.053Z,46.10
2022-11-09T22:12:04.279Z,45.23
2022-11-09T22:14:50.076Z,40.37
2022-11-09T22:17:17.726Z,43.13
2022-11-09T22:20:03.921Z,39.37
2022-11-09T22:22:33.767Z,37.30
2022-11-09T22:25:01.198Z,33.40
2022-11-09T22:27:31.683Z,27.73
2022-11-09T22:29:59.345Z,27.93
2022-11-09T22:32:26.824Z,26.63
2022-11-09T22:34:54.262Z,25.87
2022-11-09T22:37:21.809Z,23.20
2022-11-09T22:39:49.357Z,21.07
2022-11-09T22:42:16.838Z,19.17
2022-11-09T22:44:44.291Z,18.67
2022-11-09T22:47:11.795Z,17.53
2022-11-09T22:49:39.269Z,17.47
2022-11-09T22:52:06.742Z,17.87
2022-11-09T22:54:34.173Z,16.93
2022-11-09T22:57:01.649Z,16.93
2022-11-09T22:59:29.102Z,16.73
2022-11-09T23:01:56.622Z,17.13
2022-11-09T23:04:24.035Z,17.30
2022-11-09T23:06:51.555Z,18.00
2022-11-09T23:09:19.092Z,18.23
2022-11-09T23:11:46.498Z,18.30
2022-11-09T23:14:13.968Z,16.97
2022-11-09T23:16:41.398Z,17.73
2022-11-09T23:19:08.797Z,17.83
2022-11-09T23:21:37.882Z,17.83
2022-11-09T23:24:27.788Z,16.97
2022-11-09T23:26:55.199Z,15.80
2022-11-09T23:29:22.591Z,16.40
2022-11-09T23:31:49.978Z,16.43
2022-11-09T23:34:17.603Z,16.97
2022-11-09T23:36:45.023Z,16.40
2022-11-09T23:39:12.446Z,17.03
2022-11-09T23:41:40.327Z,16.73
2022-11-09T23:44:07.847Z,16.83
2022-11-09T23:46:35.223Z,17.00
2022-11-09T23:49:02.764Z,16.60
2022-11-09T23:51:30.145Z,15.73
2022-11-09T23:53:57.561Z,15.80
2022-11-09T23:56:25.030Z,15.97
2022-11-09T23:58:52.430Z,16.43
